sensor_id;sensor_type;location;lat;lon;timestamp;pressure;altitude;pressure_sealevel;temperature;humidity
46111;BME280;31849;55.992;37.252;2022-10-16T00:01:23;100282.38;;;3.37;63.87
46111;BME280;31849;55.992;37.252;2022-10-16T00:06:29;100265.63;;;3.26;63.79
46111;BME280;31849;55.992;37.252;2022-10-16T00:11:34;100288.31;;;3.36;63.74
46111;BME280;31849;55.992;37.252;2022-10-16T00:16:41;100296.78;;;3.33;63.55
46111;BME280;31849;55.992;37.252;2022-10-16T00:21:46;100303.56;;;3.31;63.79
46111;BME280;31849;55.992;37.252;2022-10-16T00:27:09;100289.44;;;3.22;63.18
46111;BME280;31849;55.992;37.252;2022-10-16T00:32:14;100295.38;;;3.21;63.92
46111;BME280;31849;55.992;37.252;2022-10-16T00:37:17;100299.47;;;3.15;64.00
46111;BME280;31849;55.992;37.252;2022-10-16T00:42:22;100303.69;;;3.13;63.17
46111;BME280;31849;55.992;37.252;2022-10-16T00:47:30;100307.06;;;3.12;63.72
46111;BME280;31849;55.992;37.252;2022-10-16T00:52:36;100310.13;;;3.04;64.43
46111;BME280;31849;55.992;37.252;2022-10-16T00:57:43;100312.31;;;2.94;64.61
46111;BME280;31849;55.992;37.252;2022-10-16T01:02:53;100313.81;;;2.89;64.62
46111;BME280;31849;55.992;37.252;2022-10-16T01:08:02;100312.75;;;2.84;65.31
46111;BME280;31849;55.992;37.252;2022-10-16T01:13:11;100312.88;;;2.87;64.38
46111;BME280;31849;55.992;37.252;2022-10-16T01:18:22;100312.06;;;2.88;64.41
46111;BME280;31849;55.992;37.252;2022-10-16T01:23:38;100318.13;;;2.90;64.03
46111;BME280;31849;55.992;37.252;2022-10-16T01:28:49;100321.91;;;2.98;64.11
46111;BME280;31849;55.992;37.252;2022-10-16T01:34:01;100316.63;;;2.95;64.50
46111;BME280;31849;55.992;37.252;2022-10-16T01:39:09;100322.72;;;2.97;64.23
46111;BME280;31849;55.992;37.252;2022-10-16T01:44:19;100323.59;;;2.98;63.92
46111;BME280;31849;55.992;37.252;2022-10-16T01:49:25;100327.59;;;2.91;64.19
46111;BME280;31849;55.992;37.252;2022-10-16T01:54:33;100328.53;;;2.93;64.59
46111;BME280;31849;55.992;37.252;2022-10-16T01:59:42;100325.53;;;2.83;64.63
46111;BME280;31849;55.992;37.252;2022-10-16T02:04:51;100329.03;;;2.85;64.36
46111;BME280;31849;55.992;37.252;2022-10-16T02:09:56;100321.38;;;2.86;64.15
46111;BME280;31849;55.992;37.252;2022-10-16T02:15:02;100328.34;;;2.89;63.92
46111;BME280;31849;55.992;37.252;2022-10-16T02:20:06;100328.09;;;2.83;64.15
46111;BME280;31849;55.992;37.252;2022-10-16T02:25:15;100331.22;;;2.75;64.28
46111;BME280;31849;55.992;37.252;2022-10-16T02:30:25;100325.69;;;2.66;64.80
46111;BME280;31849;55.992;37.252;2022-10-16T02:35:31;100349.59;;;2.65;64.69
46111;BME280;31849;55.992;37.252;2022-10-16T02:40:35;100350.13;;;2.58;64.63
46111;BME280;31849;55.992;37.252;2022-10-16T02:45:41;100349.00;;;2.51;65.18
46111;BME280;31849;55.992;37.252;2022-10-16T02:50:45;100345.13;;;2.41;64.76
46111;BME280;31849;55.992;37.252;2022-10-16T02:55:50;100347.88;;;2.26;65.35
46111;BME280;31849;55.992;37.252;2022-10-16T03:00:54;100347.63;;;2.20;65.63
46111;BME280;31849;55.992;37.252;2022-10-16T03:05:59;100347.41;;;2.16;65.57
46111;BME280;31849;55.992;37.252;2022-10-16T03:11:03;100349.84;;;2.13;65.71
46111;BME280;31849;55.992;37.252;2022-10-16T03:16:08;100355.09;;;2.16;65.26
46111;BME280;31849;55.992;37.252;2022-10-16T03:21:15;100347.88;;;2.07;66.21
46111;BME280;31849;55.992;37.252;2022-10-16T03:26:19;100357.16;;;2.05;65.53
46111;BME280;31849;55.992;37.252;2022-10-16T03:31:24;100360.41;;;2.01;65.71
46111;BME280;31849;55.992;37.252;2022-10-16T03:36:29;100358.50;;;1.97;65.49
46111;BME280;31849;55.992;37.252;2022-10-16T03:41:33;100373.91;;;1.97;66.13
46111;BME280;31849;55.992;37.252;2022-10-16T03:46:38;100371.91;;;1.91;66.29
46111;BME280;31849;55.992;37.252;2022-10-16T03:51:42;100372.50;;;1.85;65.63
46111;BME280;31849;55.992;37.252;2022-10-16T03:56:46;100368.28;;;1.86;66.00
46111;BME280;31849;55.992;37.252;2022-10-16T04:01:51;100370.06;;;1.88;66.23
46111;BME280;31849;55.992;37.252;2022-10-16T04:06:55;100379.47;;;1.88;66.17
46111;BME280;31849;55.992;37.252;2022-10-16T04:11:59;100372.72;;;1.90;66.41
46111;BME280;31849;55.992;37.252;2022-10-16T04:17:05;100375.94;;;2.04;66.14
46111;BME280;31849;55.992;37.252;2022-10-16T04:22:09;100374.59;;;2.12;65.75
46111;BME280;31849;55.992;37.252;2022-10-16T04:27:12;100371.31;;;2.15;65.80
46111;BME280;31849;55.992;37.252;2022-10-16T04:32:17;100380.38;;;2.26;65.37
46111;BME280;31849;55.992;37.252;2022-10-16T04:37:23;100383.16;;;2.31;65.35
46111;BME280;31849;55.992;37.252;2022-10-16T04:42:27;100380.44;;;2.27;65.59
46111;BME280;31849;55.992;37.252;2022-10-16T04:47:32;100383.28;;;2.34;65.60
46111;BME280;31849;55.992;37.252;2022-10-16T04:52:36;100392.78;;;2.54;64.62
46111;BME280;31849;55.992;37.252;2022-10-16T04:57:40;100386.97;;;2.58;65.26
46111;BME280;31849;55.992;37.252;2022-10-16T05:02:45;100395.22;;;2.71;65.00
46111;BME280;31849;55.992;37.252;2022-10-16T05:07:48;100399.94;;;2.81;64.37
46111;BME280;31849;55.992;37.252;2022-10-16T05:12:53;100390.81;;;2.88;64.35
46111;BME280;31849;55.992;37.252;2022-10-16T05:17:58;100387.94;;;3.01;64.03
46111;BME280;31849;55.992;37.252;2022-10-16T05:23:02;100394.75;;;3.20;64.21
46111;BME280;31849;55.992;37.252;2022-10-16T05:28:05;100398.91;;;3.38;64.03
46111;BME280;31849;55.992;37.252;2022-10-16T05:33:11;100403.38;;;3.63;63.52
46111;BME280;31849;55.992;37.252;2022-10-16T05:38:15;100408.97;;;3.96;62.86
46111;BME280;31849;55.992;37.252;2022-10-16T05:43:18;100409.81;;;4.40;62.57
46111;BME280;31849;55.992;37.252;2022-10-16T05:48:24;100403.28;;;5.21;61.68
46111;BME280;31849;55.992;37.252;2022-10-16T05:53:28;100402.84;;;10.49;50.74
46111;BME280;31849;55.992;37.252;2022-10-16T05:58:34;100402.25;;;16.73;39.06
46111;BME280;31849;55.992;37.252;2022-10-16T06:03:40;100410.41;;;20.85;31.96
46111;BME280;31849;55.992;37.252;2022-10-16T06:08:44;100410.09;;;22.80;28.75
46111;BME280;31849;55.992;37.252;2022-10-16T06:13:49;100405.34;;;25.72;24.37
46111;BME280;31849;55.992;37.252;2022-10-16T06:18:55;100407.91;;;26.44;23.12
46111;BME280;31849;55.992;37.252;2022-10-16T06:24:00;100405.78;;;26.50;22.02
46111;BME280;31849;55.992;37.252;2022-10-16T06:29:04;100406.56;;;28.25;19.97
46111;BME280;31849;55.992;37.252;2022-10-16T06:34:10;100406.34;;;29.15;18.47
46111;BME280;31849;55.992;37.252;2022-10-16T06:39:14;100418.09;;;29.94;17.94
46111;BME280;31849;55.992;37.252;2022-10-16T06:44:18;100418.91;;;30.60;17.03
46111;BME280;31849;55.992;37.252;2022-10-16T06:49:22;100406.03;;;31.02;16.62
46111;BME280;31849;55.992;37.252;2022-10-16T06:54:26;100417.94;;;32.31;15.12
46111;BME280;31849;55.992;37.252;2022-10-16T06:59:30;100414.25;;;32.66;14.90
46111;BME280;31849;55.992;37.252;2022-10-16T07:04:36;100411.69;;;32.98;14.04
46111;BME280;31849;55.992;37.252;2022-10-16T07:09:40;100418.91;;;32.52;14.50
46111;BME280;31849;55.992;37.252;2022-10-16T07:14:44;100414.00;;;31.77;14.98
46111;BME280;31849;55.992;37.252;2022-10-16T07:19:49;100413.78;;;31.31;14.78
46111;BME280;31849;55.992;37.252;2022-10-16T07:24:55;100422.47;;;32.41;14.45
46111;BME280;31849;55.992;37.252;2022-10-16T07:30:00;100420.44;;;31.74;14.75
46111;BME280;31849;55.992;37.252;2022-10-16T07:35:10;100433.78;;;32.11;14.60
46111;BME280;31849;55.992;37.252;2022-10-16T07:40:15;100427.84;;;31.59;14.88
46111;BME280;31849;55.992;37.252;2022-10-16T07:45:18;100424.09;;;33.77;13.13
46111;BME280;31849;55.992;37.252;2022-10-16T07:50:24;100430.28;;;33.89;13.25
46111;BME280;31849;55.992;37.252;2022-10-16T07:55:28;100425.13;;;33.32;13.23
46111;BME280;31849;55.992;37.252;2022-10-16T08:00:31;100428.13;;;32.72;13.86
46111;BME280;31849;55.992;37.252;2022-10-16T08:05:37;100430.03;;;32.25;13.92
46111;BME280;31849;55.992;37.252;2022-10-16T08:10:41;100436.34;;;31.53;14.39
46111;BME280;31849;55.992;37.252;2022-10-16T08:15:46;100430.97;;;31.53;14.40
46111;BME280;31849;55.992;37.252;2022-10-16T08:20:56;100416.31;;;30.46;15.07
46111;BME280;31849;55.992;37.252;2022-10-16T08:26:06;100417.78;;;29.98;15.09
46111;BME280;31849;55.992;37.252;2022-10-16T08:31:12;100411.53;;;29.85;15.80
46111;BME280;31849;55.992;37.252;2022-10-16T08:36:19;100390.25;;;25.55;18.16
46111;BME280;31849;55.992;37.252;2022-10-16T08:41:48;100396.25;;;21.98;22.00
46111;BME280;31849;55.992;37.252;2022-10-16T08:47:02;100401.88;;;19.77;24.73
46111;BME280;31849;55.992;37.252;2022-10-16T08:52:13;100399.41;;;18.52;26.55
46111;BME280;31849;55.992;37.252;2022-10-16T08:57:19;100396.94;;;17.41;27.56
46111;BME280;31849;55.992;37.252;2022-10-16T09:02:31;100404.28;;;16.49;29.17
46111;BME280;31849;55.992;37.252;2022-10-16T09:07:43;100414.78;;;15.51;30.69
46111;BME280;31849;55.992;37.252;2022-10-16T09:12:55;100409.06;;;14.95;31.72
46111;BME280;31849;55.992;37.252;2022-10-16T09:18:10;100409.19;;;14.66;31.92
46111;BME280;31849;55.992;37.252;2022-10-16T09:23:19;100393.63;;;14.02;33.53
46111;BME280;31849;55.992;37.252;2022-10-16T09:28:24;100397.13;;;13.87;33.93
46111;BME280;31849;55.992;37.252;2022-10-16T09:33:33;100389.25;;;14.12;33.50
46111;BME280;31849;55.992;37.252;2022-10-16T09:38:38;100378.78;;;14.00;33.93
46111;BME280;31849;55.992;37.252;2022-10-16T09:43:48;100387.56;;;13.65;34.19
46111;BME280;31849;55.992;37.252;2022-10-16T09:48:56;100375.38;;;13.44;34.65
46111;BME280;31849;55.992;37.252;2022-10-16T09:54:13;100367.47;;;13.33;35.16
46111;BME280;31849;55.992;37.252;2022-10-16T09:59:18;100371.00;;;13.61;34.58
46111;BME280;31849;55.992;37.252;2022-10-16T10:04:24;100360.56;;;13.49;35.15
46111;BME280;31849;55.992;37.252;2022-10-16T10:09:34;100364.06;;;13.56;34.90
46111;BME280;31849;55.992;37.252;2022-10-16T10:14:43;100364.03;;;13.40;35.26
46111;BME280;31849;55.992;37.252;2022-10-16T10:19:50;100361.38;;;13.25;35.17
46111;BME280;31849;55.992;37.252;2022-10-16T10:25:15;100364.84;;;12.99;36.02
46111;BME280;31849;55.992;37.252;2022-10-16T10:30:25;100362.19;;;12.96;35.56
46111;BME280;31849;55.992;37.252;2022-10-16T10:35:38;100352.53;;;12.62;36.64
46111;BME280;31849;55.992;37.252;2022-10-16T10:40:52;100351.69;;;12.63;36.49
46111;BME280;31849;55.992;37.252;2022-10-16T10:46:04;100343.91;;;12.85;36.76
46111;BME280;31849;55.992;37.252;2022-10-16T10:51:12;100337.81;;;12.75;36.76
46111;BME280;31849;55.992;37.252;2022-10-16T10:56:30;100347.31;;;12.62;36.59
46111;BME280;31849;55.992;37.252;2022-10-16T11:01:48;100341.19;;;12.53;37.40
46111;BME280;31849;55.992;37.252;2022-10-16T11:06:57;100337.81;;;12.74;36.56
46111;BME280;31849;55.992;37.252;2022-10-16T11:12:11;100333.47;;;12.93;37.00
46111;BME280;31849;55.992;37.252;2022-10-16T11:17:19;100338.75;;;13.05;36.78
46111;BME280;31849;55.992;37.252;2022-10-16T11:22:32;100340.44;;;12.89;37.00
46111;BME280;31849;55.992;37.252;2022-10-16T11:27:40;100342.13;;;12.73;37.28
46111;BME280;31849;55.992;37.252;2022-10-16T11:32:58;100339.53;;;12.73;37.61
46111;BME280;31849;55.992;37.252;2022-10-16T11:38:11;100338.69;;;12.83;37.54
46111;BME280;31849;55.992;37.252;2022-10-16T11:43:27;100342.22;;;13.04;37.07
46111;BME280;31849;55.992;37.252;2022-10-16T11:48:38;100330.91;;;13.00;37.08
46111;BME280;31849;55.992;37.252;2022-10-16T11:53:47;100345.69;;;13.01;37.08
46111;BME280;31849;55.992;37.252;2022-10-16T11:58:58;100329.94;;;12.66;38.35
46111;BME280;31849;55.992;37.252;2022-10-16T12:04:14;100327.38;;;12.80;38.28
46111;BME280;31849;55.992;37.252;2022-10-16T12:09:29;100329.97;;;12.77;37.55
46111;BME280;31849;55.992;37.252;2022-10-16T12:14:37;100321.25;;;12.76;37.72
46111;BME280;31849;55.992;37.252;2022-10-16T12:20:23;100322.06;;;12.52;38.19
46111;BME280;31849;55.992;37.252;2022-10-16T12:25:30;100314.22;;;12.43;37.92
46111;BME280;31849;55.992;37.252;2022-10-16T12:30:36;100317.72;;;12.49;37.83
46111;BME280;31849;55.992;37.252;2022-10-16T12:35:44;100304.63;;;12.39;38.37
46111;BME280;31849;55.992;37.252;2022-10-16T12:40:56;100321.06;;;12.16;39.19
46111;BME280;31849;55.992;37.252;2022-10-16T12:46:06;100311.44;;;12.06;39.27
46111;BME280;31849;55.992;37.252;2022-10-16T12:51:34;100318.47;;;12.16;38.90
46111;BME280;31849;55.992;37.252;2022-10-16T12:56:50;100320.88;;;11.91;39.66
46111;BME280;31849;55.992;37.252;2022-10-16T13:02:15;100315.78;;;12.05;39.43
46111;BME280;31849;55.992;37.252;2022-10-16T13:07:34;100320.03;;;11.91;39.45
46111;BME280;31849;55.992;37.252;2022-10-16T13:13:06;100314.78;;;11.85;39.86
46111;BME280;31849;55.992;37.252;2022-10-16T13:18:21;100306.06;;;11.79;39.64
46111;BME280;31849;55.992;37.252;2022-10-16T13:23:31;100324.25;;;11.70;40.00
46111;BME280;31849;55.992;37.252;2022-10-16T13:28:38;100313.81;;;11.67;40.11
46111;BME280;31849;55.992;37.252;2022-10-16T13:33:46;100307.69;;;11.68;40.09
46111;BME280;31849;55.992;37.252;2022-10-16T13:39:10;100307.63;;;11.56;40.31
46111;BME280;31849;55.992;37.252;2022-10-16T13:44:19;100307.56;;;11.43;40.98
46111;BME280;31849;55.992;37.252;2022-10-16T13:49:25;100300.50;;;11.32;41.03
46111;BME280;31849;55.992;37.252;2022-10-16T13:54:29;100303.81;;;11.09;41.53
46111;BME280;31849;55.992;37.252;2022-10-16T13:59:36;100300.25;;;11.01;41.54
46111;BME280;31849;55.992;37.252;2022-10-16T14:04:43;100298.34;;;10.83;42.21
46111;BME280;31849;55.992;37.252;2022-10-16T14:09:48;100300.84;;;10.73;42.41
46111;BME280;31849;55.992;37.252;2022-10-16T14:14:54;100297.09;;;10.47;42.97
46111;BME280;31849;55.992;37.252;2022-10-16T14:20:00;100306.50;;;10.37;43.12
46111;BME280;31849;55.992;37.252;2022-10-16T14:25:22;100311.38;;;10.15;44.44
46111;BME280;31849;55.992;37.252;2022-10-16T14:30:30;100309.56;;;10.07;43.90
46111;BME280;31849;55.992;37.252;2022-10-16T14:35:39;100302.38;;;9.89;44.82
46111;BME280;31849;55.992;37.252;2022-10-16T14:40:47;100294.41;;;9.75;44.50
46111;BME280;31849;55.992;37.252;2022-10-16T14:45:55;100308.16;;;9.67;45.01
46111;BME280;31849;55.992;37.252;2022-10-16T14:51:02;100305.41;;;9.57;45.16
46111;BME280;31849;55.992;37.252;2022-10-16T14:56:07;100310.44;;;9.47;45.58
46111;BME280;31849;55.992;37.252;2022-10-16T15:01:10;100312.00;;;9.36;45.57
46111;BME280;31849;55.992;37.252;2022-10-16T15:06:16;100304.91;;;9.26;45.86
46111;BME280;31849;55.992;37.252;2022-10-16T15:11:20;100311.69;;;9.18;46.01
46111;BME280;31849;55.992;37.252;2022-10-16T15:16:24;100303.72;;;9.07;46.25
46111;BME280;31849;55.992;37.252;2022-10-16T15:21:32;100307.81;;;8.92;47.50
46111;BME280;31849;55.992;37.252;2022-10-16T15:26:36;100311.09;;;8.84;47.68
46111;BME280;31849;55.992;37.252;2022-10-16T15:31:40;100315.34;;;8.80;47.06
46111;BME280;31849;55.992;37.252;2022-10-16T15:36:46;100302.19;;;8.69;47.93
46111;BME280;31849;55.992;37.252;2022-10-16T15:41:51;100290.66;;;8.53;48.24
46111;BME280;31849;55.992;37.252;2022-10-16T15:46:57;100291.47;;;8.49;48.69
46111;BME280;31849;55.992;37.252;2022-10-16T15:52:03;100291.28;;;8.43;49.05
46111;BME280;31849;55.992;37.252;2022-10-16T15:57:07;100295.50;;;8.38;48.30
46111;BME280;31849;55.992;37.252;2022-10-16T16:02:11;100297.06;;;8.30;48.44
46111;BME280;31849;55.992;37.252;2022-10-16T16:07:15;100301.34;;;8.27;49.47
46111;BME280;31849;55.992;37.252;2022-10-16T16:12:21;100306.50;;;8.26;48.53
46111;BME280;31849;55.992;37.252;2022-10-16T16:17:25;100309.91;;;8.23;49.36
46111;BME280;31849;55.992;37.252;2022-10-16T16:22:31;100316.66;;;8.15;49.25
46111;BME280;31849;55.992;37.252;2022-10-16T16:27:34;100309.44;;;8.00;50.45
46111;BME280;31849;55.992;37.252;2022-10-16T16:32:40;100307.63;;;7.98;50.02
46111;BME280;31849;55.992;37.252;2022-10-16T16:37:46;100299.03;;;7.99;49.83
46111;BME280;31849;55.992;37.252;2022-10-16T16:42:50;100294.53;;;7.90;50.12
46111;BME280;31849;55.992;37.252;2022-10-16T16:47:54;100294.44;;;7.85;50.16
46111;BME280;31849;55.992;37.252;2022-10-16T16:53:00;100311.75;;;7.89;50.57
46111;BME280;31849;55.992;37.252;2022-10-16T16:58:05;100310.63;;;7.77;50.38
46111;BME280;31849;55.992;37.252;2022-10-16T17:03:08;100307.94;;;7.72;50.89
46111;BME280;31849;55.992;37.252;2022-10-16T17:08:14;100301.81;;;7.68;50.66
46111;BME280;31849;55.992;37.252;2022-10-16T17:13:18;100286.81;;;7.53;51.23
46111;BME280;31849;55.992;37.252;2022-10-16T17:18:23;100297.16;;;7.53;51.56
46111;BME280;31849;55.992;37.252;2022-10-16T17:23:31;100305.72;;;7.51;52.35
46111;BME280;31849;55.992;37.252;2022-10-16T17:28:35;100301.44;;;7.51;51.10
46111;BME280;31849;55.992;37.252;2022-10-16T17:33:39;100309.97;;;7.49;51.92
46111;BME280;31849;55.992;37.252;2022-10-16T17:38:45;100315.91;;;7.45;51.70
46111;BME280;31849;55.992;37.252;2022-10-16T17:43:50;100322.81;;;7.44;51.78
46111;BME280;31849;55.992;37.252;2022-10-16T17:48:54;100319.28;;;7.42;51.76
46111;BME280;31849;55.992;37.252;2022-10-16T17:54:00;100310.56;;;7.37;51.67
46111;BME280;31849;55.992;37.252;2022-10-16T17:59:04;100312.06;;;7.29;51.66
46111;BME280;31849;55.992;37.252;2022-10-16T18:04:10;100323.03;;;7.18;53.15
46111;BME280;31849;55.992;37.252;2022-10-16T18:09:18;100313.69;;;7.24;52.38
46111;BME280;31849;55.992;37.252;2022-10-16T18:14:23;100318.88;;;7.24;51.58
46111;BME280;31849;55.992;37.252;2022-10-16T18:19:26;100301.69;;;7.27;51.98
46111;BME280;31849;55.992;37.252;2022-10-16T18:24:32;100301.72;;;7.29;52.03
46111;BME280;31849;55.992;37.252;2022-10-16T18:29:37;100308.66;;;7.30;51.99
46111;BME280;31849;55.992;37.252;2022-10-16T18:34:41;100305.19;;;7.28;52.20
46111;BME280;31849;55.992;37.252;2022-10-16T18:39:49;100312.97;;;7.29;51.71
46111;BME280;31849;55.992;37.252;2022-10-16T18:44:53;100303.66;;;7.37;51.51
46111;BME280;31849;55.992;37.252;2022-10-16T18:49:56;100304.53;;;7.36;51.98
46111;BME280;31849;55.992;37.252;2022-10-16T18:55:03;100299.22;;;7.32;52.04
46111;BME280;31849;55.992;37.252;2022-10-16T19:00:09;100294.00;;;7.30;52.29
46111;BME280;31849;55.992;37.252;2022-10-16T19:05:12;100287.09;;;7.29;52.13
46111;BME280;31849;55.992;37.252;2022-10-16T19:10:18;100292.38;;;7.34;51.60
46111;BME280;31849;55.992;37.252;2022-10-16T19:15:22;100283.69;;;7.32;51.95
46111;BME280;31849;55.992;37.252;2022-10-16T19:20:26;100269.59;;;7.19;52.18
46111;BME280;31849;55.992;37.252;2022-10-16T19:25:35;100267.78;;;7.15;52.17
46111;BME280;31849;55.992;37.252;2022-10-16T19:30:40;100272.09;;;7.14;52.65
46111;BME280;31849;55.992;37.252;2022-10-16T19:35:47;100272.28;;;7.22;51.85
46111;BME280;31849;55.992;37.252;2022-10-16T19:40:53;100265.31;;;7.19;51.53
46111;BME280;31849;55.992;37.252;2022-10-16T19:46:01;100258.22;;;7.12;52.21
46111;BME280;31849;55.992;37.252;2022-10-16T19:51:08;100265.88;;;7.08;51.96
46111;BME280;31849;55.992;37.252;2022-10-16T19:56:17;100271.94;;;7.08;52.23
46111;BME280;31849;55.992;37.252;2022-10-16T20:01:24;100274.75;;;6.84;52.77
46111;BME280;31849;55.992;37.252;2022-10-16T20:06:28;100278.06;;;6.78;52.53
46111;BME280;31849;55.992;37.252;2022-10-16T20:11:35;100278.09;;;6.80;53.33
46111;BME280;31849;55.992;37.252;2022-10-16T20:16:39;100279.53;;;6.68;53.25
46111;BME280;31849;55.992;37.252;2022-10-16T20:21:43;100278.78;;;6.73;52.71
46111;BME280;31849;55.992;37.252;2022-10-16T20:26:48;100277.66;;;6.63;53.23
46111;BME280;31849;55.992;37.252;2022-10-16T20:31:53;100269.91;;;6.63;52.59
46111;BME280;31849;55.992;37.252;2022-10-16T20:36:57;100272.13;;;6.49;52.82
46111;BME280;31849;55.992;37.252;2022-10-16T20:42:02;100273.94;;;6.53;53.44
46111;BME280;31849;55.992;37.252;2022-10-16T20:47:07;100279.97;;;6.52;53.09
46111;BME280;31849;55.992;37.252;2022-10-16T20:52:11;100272.84;;;6.43;52.69
46111;BME280;31849;55.992;37.252;2022-10-16T20:57:15;100266.75;;;6.41;52.96
46111;BME280;31849;55.992;37.252;2022-10-16T21:02:19;100256.94;;;6.29;53.58
46111;BME280;31849;55.992;37.252;2022-10-16T21:07:23;100268.28;;;6.34;53.96
46111;BME280;31849;55.992;37.252;2022-10-16T21:12:29;100261.38;;;6.33;53.42
46111;BME280;31849;55.992;37.252;2022-10-16T21:17:32;100256.16;;;6.32;53.35
46111;BME280;31849;55.992;37.252;2022-10-16T21:22:36;100253.56;;;6.32;53.55
46111;BME280;31849;55.992;37.252;2022-10-16T21:27:41;100245.66;;;6.26;53.59
46111;BME280;31849;55.992;37.252;2022-10-16T21:32:45;100240.34;;;6.20;53.37
46111;BME280;31849;55.992;37.252;2022-10-16T21:37:49;100244.31;;;6.39;52.92
46111;BME280;31849;55.992;37.252;2022-10-16T21:42:55;100243.22;;;6.30;53.65
46111;BME280;31849;55.992;37.252;2022-10-16T21:47:58;100255.47;;;6.38;53.71
46111;BME280;31849;55.992;37.252;2022-10-16T21:53:02;100259.59;;;6.31;53.49
46111;BME280;31849;55.992;37.252;2022-10-16T21:58:08;100244.84;;;6.27;53.52
46111;BME280;31849;55.992;37.252;2022-10-16T22:03:12;100249.16;;;6.28;53.60
46111;BME280;31849;55.992;37.252;2022-10-16T22:08:15;100250.06;;;6.28;53.23
46111;BME280;31849;55.992;37.252;2022-10-16T22:13:21;100247.66;;;6.36;53.67
46111;BME280;31849;55.992;37.252;2022-10-16T22:18:24;100250.06;;;6.28;52.87
46111;BME280;31849;55.992;37.252;2022-10-16T22:23:28;100250.06;;;6.28;53.15
46111;BME280;31849;55.992;37.252;2022-10-16T22:28:34;100247.09;;;6.16;53.66
46111;BME280;31849;55.992;37.252;2022-10-16T22:33:38;100240.94;;;6.11;53.52
46111;BME280;31849;55.992;37.252;2022-10-16T22:38:42;100238.97;;;6.02;54.37
46111;BME280;31849;55.992;37.252;2022-10-16T22:43:48;100243.31;;;6.03;54.03
46111;BME280;31849;55.992;37.252;2022-10-16T22:48:52;100246.81;;;6.05;53.44
46111;BME280;31849;55.992;37.252;2022-10-16T22:53:57;100239.03;;;6.04;54.21
46111;BME280;31849;55.992;37.252;2022-10-16T22:59:02;100237.38;;;6.06;53.83
46111;BME280;31849;55.992;37.252;2022-10-16T23:04:06;100236.59;;;6.10;53.70
46111;BME280;31849;55.992;37.252;2022-10-16T23:09:10;100232.22;;;6.06;53.93
46111;BME280;31849;55.992;37.252;2022-10-16T23:14:20;100219.25;;;6.04;53.55
46111;BME280;31849;55.992;37.252;2022-10-16T23:19:23;100201.97;;;6.02;53.39
46111;BME280;31849;55.992;37.252;2022-10-16T23:24:29;100213.09;;;5.99;54.49
46111;BME280;31849;55.992;37.252;2022-10-16T23:29:34;100197.84;;;6.08;54.17
46111;BME280;31849;55.992;37.252;2022-10-16T23:34:38;100220.09;;;6.03;54.29
46111;BME280;31849;55.992;37.252;2022-10-16T23:39:41;100212.56;;;6.11;54.19
46111;BME280;31849;55.992;37.252;2022-10-16T23:44:47;100209.22;;;6.15;53.76
46111;BME280;31849;55.992;37.252;2022-10-16T23:49:50;100195.09;;;6.02;54.32
46111;BME280;31849;55.992;37.252;2022-10-16T23:54:54;100202.09;;;6.06;53.60
46111;BME280;31849;55.992;37.252;2022-10-16T23:59:59;100194.41;;;6.08;54.32
